Flight Track Log - Related Links

Times and Time Zones

All times are in EST time to prevent confusion due to time zone crossing. See the ASQ5874 flight status page for this flight to view local times or setup timezone preferences in your user account.

Time Position Orientation Groundspeed Altitude Reporting Facility
EST Latitude Longitude Course Direction KTS MPH feet Rate Location/Type
Tue 07:00:44 AM 37.6581 -97.4356 351° North 163 188 1,600  Level Kansas City Center
Tue 07:01:09 AM 37.6761 -97.4275 19° North 178 205 2,300 1,765 Climbing Kansas City Center
Tue 07:02:09 AM 37.7342 -97.4186 North 221 254 4,100 1,417 Climbing Kansas City Center
Tue 07:02:21 AM 37.7317 -97.4186 180° South 200 230 4,000 1,727 Descending Kansas City Center
Tue 07:03:15 AM 37.8069 -97.4100 North 259 298 6,000 2,211 Climbing Kansas City Center
Tue 07:03:18 AM 37.8133 -97.4106 356° North 250 288 6,100 2,323 Climbing Kansas City Center
Tue 07:04:17 AM 37.8881 -97.4028 North 281 323 8,400 2,129 Climbing Kansas City Center
Tue 07:04:20 AM 37.8892 -97.4019 31° Northeast 271 312 8,300 1,810 Descending Kansas City Center
Tue 07:05:00 AM 37.9477 -96.8623 65° Northeast  Level Estimated
Tue 07:05:20 AM 37.9681 -97.3933 North 284 327 10,300  Level Kansas City Center
Tue 07:06:00 AM 38.0543 -96.8848 351° North  Level FlightAware Approximate
Tue 07:06:22 AM 38.0550 -97.3842 North 311 358 11,500  Level Kansas City Center
Tue 07:07:23 AM 38.1528 -97.3725 North 351 404 12,400 1,050 Climbing Kansas City Center
Tue 07:08:22 AM 38.2519 -97.3231 21° North 384 442 13,600 1,388 Climbing Kansas City Center
Tue 07:09:24 AM 38.3506 -97.2711 22° Northeast 385 443 15,200 1,600 Climbing Kansas City Center
Tue 07:10:22 AM 38.4417 -97.2058 29° Northeast 385 443 16,800 1,831 Climbing Kansas City Center
Tue 07:11:22 AM 38.4906 -97.0836 63° Northeast 389 448 18,800 1,550 Climbing Kansas City Center
Tue 07:12:22 AM 38.5353 -96.9558 66° East 393 452 19,900 1,082 Climbing Kansas City Center
Tue 07:13:24 AM 38.5825 -96.8219 66° East 409 471 21,000 976 Climbing Kansas City Center
Tue 07:14:25 AM 38.6281 -96.6906 66° East 424 488 21,900 1,008 Climbing Kansas City Center
Tue 07:15:23 AM 38.6836 -96.5328 66° East 435 501 23,000 1,059 Climbing Kansas City Center
Tue 07:16:24 AM 38.7306 -96.3947 66° East 442 509 24,000 968 Climbing Kansas City Center
Tue 07:17:27 AM 38.7786 -96.2575 66° East 443 510 25,000 1,122 Climbing Kansas City Center
Tue 07:18:27 AM 38.8336 -96.0939 67° East 446 513 26,300 1,271 Climbing Kansas City Center
Tue 07:19:25 AM 38.8806 -95.9572 66° East 440 506 27,500 1,150 Climbing Kansas City Center
Tue 07:20:27 AM 38.9258 -95.8219 67° East 433 498 28,600 976 Climbing Kansas City Center
Tue 07:21:28 AM 38.9808 -95.6633 66° East 435 501 29,500 756 Climbing Kansas City Center
Tue 07:22:26 AM 39.0278 -95.5208 67° East 452 520 30,100 650 Climbing Kansas City Center
Tue 07:23:28 AM 39.0814 -95.3600 67° East 466 536 30,800 1,033 Climbing Kansas City Center
Tue 07:24:28 AM 39.1336 -95.2000 67° East 465 535 32,200 1,366 Climbing Kansas City Center
Tue 07:25:31 AM 39.1761 -95.0678 67° East 452 520 33,600 1,355 Climbing Kansas City Center
Tue 07:26:32 AM 39.2292 -94.9069 67° East 441 507 35,000 694 Climbing Kansas City Center
Tue 07:27:32 AM 39.2744 -94.7656 67° East 442 509 35,000  Level Kansas City Center
Tue 07:28:33 AM 39.3314 -94.6228 63° Northeast 459 528 35,000  Level Kansas City Center
Tue 07:29:32 AM 39.4025 -94.4508 62° Northeast 485 558 35,000  Level Kansas City Center
Tue 07:30:34 AM 39.4628 -94.3019 62° Northeast 488 562 35,000  Level Kansas City Center
Tue 07:31:33 AM 39.5225 -94.1544 62° Northeast 483 556 35,000  Level Kansas City Center
Tue 07:32:34 AM 39.5808 -94.0086 63° Northeast 478 550 35,000  Level Kansas City Center
Tue 07:33:35 AM 39.6494 -93.8369 63° Northeast 480 552 35,000  Level Kansas City Center
Tue 07:34:35 AM 39.7039 -93.7014 62° Northeast 481 554 35,000  Level Kansas City Center
Tue 07:35:36 AM 39.7636 -93.5483 63° Northeast 479 551 35,000  Level Kansas City Center
Tue 07:36:38 AM 39.8356 -93.3653 63° Northeast 478 550 35,000  Level Kansas City Center
Tue 07:37:36 AM 39.8972 -93.2128 62° Northeast 480 552 35,000  Level Kansas City Center
Tue 07:38:37 AM 39.9561 -93.0575 64° Northeast 483 556 35,000  Level Kansas City Center
Tue 07:39:39 AM 40.0161 -92.9011 63° Northeast 485 558 35,000  Level Kansas City Center
Tue 07:40:41 AM 40.0747 -92.7475 63° Northeast 485 558 35,000  Level Kansas City Center
Tue 07:41:42 AM 40.1319 -92.5967 64° Northeast 484 557 35,000  Level Kansas City Center
Tue 07:42:41 AM 40.2006 -92.4200 63° Northeast 483 556 35,000  Level Kansas City Center
Tue 07:43:43 AM 40.2475 -92.2828 66° East 484 557 35,000  Level Kansas City Center
Tue 07:44:44 AM 40.3144 -92.0942 65° Northeast 484 557 35,000  Level Kansas City Center
Tue 07:45:45 AM 40.3708 -91.9356 65° Northeast 484 557 35,000  Level Kansas City Center
Tue 07:46:44 AM 40.4269 -91.7769 65° Northeast 483 556 35,000  Level Kansas City Center
Tue 07:47:45 AM 40.4803 -91.6169 66° East 483 556 35,000  Level Kansas City Center
Tue 07:48:47 AM 40.5344 -91.4578 66° East 482 555 35,000  Level Kansas City Center
Tue 07:49:48 AM 40.5883 -91.2978 66° East 481 554 35,000  Level Kansas City Center
Tue 07:50:25 AM 40.6311 -91.1786 65° Northeast 483 556 35,000 -424 Level Chicago Center
Tue 07:51:27 AM 40.6844 -91.0161 67° East 483 556 34,300 -683 Descending Chicago Center
Tue 07:52:28 AM 40.7397 -90.8542 66° East 485 558 33,600 -976 Descending Chicago Center
Tue 07:53:30 AM 40.7942 -90.6914 66° East 482 555 32,300 -1,366 Descending Chicago Center
Tue 07:54:31 AM 40.8481 -90.5306 66° East 480 552 30,800 -1,512 Descending Chicago Center
Tue 07:55:33 AM 40.9075 -90.3708 64° Northeast 481 554 29,200 -1,463 Descending Chicago Center
Tue 07:56:34 AM 40.9672 -90.2131 63° Northeast 479 551 27,800 -1,463 Descending Chicago Center
Tue 07:57:36 AM 41.0278 -90.0511 64° Northeast 482 555 26,200 -1,512 Descending Chicago Center
Tue 07:58:37 AM 41.0869 -89.8886 64° Northeast 485 558 24,700 -1,463 Descending Chicago Center
Tue 07:59:39 AM 41.1475 -89.7269 64° Northeast 485 558 23,200 -1,597 Descending Chicago Center
Tue 08:00:41 AM 41.2153 -89.5389 64° Northeast 465 535 21,400 -1,659 Descending Chicago Center
Tue 08:01:42 AM 41.2658 -89.3994 64° Northeast 424 488 19,800 -1,512 Descending Chicago Center
Tue 08:02:44 AM 41.3142 -89.2661 64° Northeast 403 464 18,300 -1,403 Descending Chicago Center
Tue 08:03:46 AM 41.3564 -89.1503 64° Northeast 378 435 16,900 -1,463 Descending Chicago Center
Tue 08:04:47 AM 41.3969 -89.0333 65° Northeast 352 405 15,300 -1,756 Descending Chicago Center
Tue 08:05:49 AM 41.4464 -88.8931 65° Northeast 350 403 13,300 -1,597 Descending Chicago Center
Tue 08:06:51 AM 41.4872 -88.7811 64° Northeast 339 390 12,000 -634 Descending Chicago Center
Tue 08:07:52 AM 41.5225 -88.6819 65° Northeast 305 351 12,000  Level Chicago Center
Tue 08:08:54 AM 41.5594 -88.5883 62° Northeast 290 334 12,000  Level Chicago Center
Tue 08:09:56 AM 41.6119 -88.5033 50° Northeast 295 339 12,000 -336 Level Chicago Center
Tue 08:10:59 AM 41.6669 -88.4242 47° Northeast 293 337 11,300 -774 Descending Chicago Center
Tue 08:12:00 AM 41.7108 -88.3483 52° Northeast 261 300 10,400 -1,033 Descending Chicago Center
Tue 08:13:01 AM 41.7639 -88.2625 50° Northeast 249 287 9,200 -683 Descending Chicago Center
Tue 08:14:03 AM 41.8053 -88.1947 51° Northeast 236 272 9,000 -97 Descending Chicago Center
Tue 08:15:05 AM 41.8611 -88.1758 14° North 220 253 9,000  Level Chicago Center
Tue 08:16:07 AM 41.8947 -88.2194 316° Northwest 197 227 9,000  Level Chicago Center
Tue 08:17:09 AM 41.9058 -88.2881 282° West 191 220 9,000 -145 Level Chicago Center
Tue 08:18:11 AM 41.9142 -88.3511 280° West 179 206 8,700 -488 Descending Chicago Center
Tue 08:19:12 AM 41.9156 -88.4264 271° West 171 197 8,000 -341 Descending Chicago Center
Tue 08:20:14 AM 41.9164 -88.4917 271° West 174 200 8,000 -387 Level Chicago Center
Tue 08:21:16 AM 41.9611 -88.5139 340° North 206 237 7,200 -484 Descending Chicago Center
Tue 08:22:18 AM 41.9819 -88.4492 67° East 214 246 7,000 -97 Descending Chicago Center
Tue 08:23:20 AM 41.9833 -88.3667 89° East 219 252 7,000 -290 Level Chicago Center
Tue 08:24:22 AM 41.9828 -88.2878 91° East 215 247 6,400 -1,016 Descending Chicago Center
Tue 08:25:24 AM 41.9822 -88.1961 90° East 210 242 4,900 -1,258 Descending Chicago Center
Tue 08:26:26 AM 41.9828 -88.1225 89° East 204 235 3,800 -1,086 Descending Chicago Center
Tue 08:27:20 AM 41.9833 -88.0500 89° East 185 213 2,800 -1,000 Descending Chicago TRACON
Tue 08:28:20 AM 41.9833 -88.0000 90° East 144 166 1,900 -900 Descending Chicago TRACON

Login

Don't have an account? Register now (free) for customized features, flight alerts, and more!